Time;durP1;ratioP1;P1;durP2;ratioP2;P2;SDS_P1;SDS_P2;PMS_P1;PMS_P2;Temp;Humidity;BMP_temperature;BMP_pressure;BME280_temperature;BME280_humidity;BME280_pressure;Samples;Min_cycle;Max_cycle;Signal;HPM_P1;HPM_P2
2023/07/19 00:00:40;;;;;;;6.40;4.00;;;16.60;79.30;;;;;;5035885;28;20073;-68
2023/07/19 00:03:06;;;;;;;5.60;4.60;;;16.60;79.30;;;;;;5039990;28;20060;-68
2023/07/19 00:05:32;;;;;;;5.63;4.00;;;16.60;79.20;;;;;;5032086;28;20536;-68
2023/07/19 00:07:57;;;;;;;7.07;4.20;;;16.60;79.10;;;;;;5041357;28;20558;-68
2023/07/19 00:10:23;;;;;;;6.40;3.80;;;16.60;79.30;;;;;;5048965;28;20416;-68
2023/07/19 00:12:49;;;;;;;5.03;4.40;;;16.60;79.30;;;;;;5050461;28;20071;-68
2023/07/19 00:15:16;;;;;;;6.43;4.03;;;16.60;79.30;;;;;;5049867;28;20370;-68
2023/07/19 00:17:44;;;;;;;4.87;4.00;;;16.60;79.30;;;;;;5050286;28;20032;-68
2023/07/19 00:20:11;;;;;;;5.70;4.00;;;16.60;79.20;;;;;;5042407;28;20308;-68
2023/07/19 00:22:37;;;;;;;6.70;4.13;;;16.60;79.40;;;;;;5030177;28;20334;-68
2023/07/19 00:25:03;;;;;;;8.40;4.13;;;16.60;79.40;;;;;;5029819;28;20343;-68
2023/07/19 00:27:29;;;;;;;7.13;4.70;;;16.60;79.70;;;;;;5029774;28;20583;-68
2023/07/19 00:29:54;;;;;;;5.67;4.10;;;16.60;79.50;;;;;;5042761;28;20095;-68
2023/07/19 00:32:20;;;;;;;5.70;4.23;;;16.60;79.70;;;;;;5029983;28;20041;-68
2023/07/19 00:34:46;;;;;;;6.53;4.40;;;16.60;79.60;;;;;;5029784;28;20051;-68
2023/07/19 00:37:12;;;;;;;7.93;4.43;;;16.60;79.80;;;;;;5029887;28;20041;-68
2023/07/19 00:39:38;;;;;;;7.37;4.23;;;16.60;79.90;;;;;;5041264;28;20037;-68
2023/07/19 00:42:04;;;;;;;5.93;4.60;;;16.50;79.80;;;;;;5040996;28;20315;-68
2023/07/19 00:44:29;;;;;;;6.40;4.20;;;16.50;80.20;;;;;;5049616;28;20102;-68
2023/07/19 00:46:57;;;;;;;7.40;4.77;;;16.50;80.20;;;;;;5032688;28;20044;-68
2023/07/19 00:49:23;;;;;;;7.30;4.77;;;16.50;80.10;;;;;;5046924;28;21819;-68
2023/07/19 00:51:49;;;;;;;8.43;4.33;;;16.50;80.30;;;;;;5049397;28;20294;-68
2023/07/19 00:54:16;;;;;;;6.40;4.50;;;16.50;80.30;;;;;;5048861;28;20120;-68
2023/07/19 00:56:45;;;;;;;8.40;4.67;;;16.50;80.50;;;;;;5049218;28;20307;-68
2023/07/19 00:59:12;;;;;;;6.23;4.77;;;16.50;80.50;;;;;;5039617;28;20275;-68
2023/07/19 01:01:38;;;;;;;7.60;5.20;;;16.50;80.90;;;;;;5048343;28;20296;-68
2023/07/19 01:04:04;;;;;;;9.03;5.60;;;16.40;81.00;;;;;;5043532;28;20310;-68
2023/07/19 01:06:30;;;;;;;6.93;5.67;;;16.40;81.80;;;;;;5041352;28;20045;-68
2023/07/19 01:08:55;;;;;;;8.57;5.60;;;16.30;82.40;;;;;;5042569;28;20425;-68
2023/07/19 01:11:21;;;;;;;8.60;5.50;;;16.30;82.40;;;;;;5044705;28;20390;-68
2023/07/19 01:13:54;;;;;;;8.23;5.70;;;16.20;83.60;;;;;;5038985;28;20509;-68
2023/07/19 01:16:20;;;;;;;9.77;6.10;;;16.10;84.20;;;;;;5039576;28;20098;-68
2023/07/19 01:18:46;;;;;;;10.07;6.20;;;16.10;84.30;;;;;;5033576;28;21001;-68
2023/07/19 01:21:12;;;;;;;9.83;6.33;;;16.00;84.40;;;;;;5025470;28;20338;-68
2023/07/19 01:23:39;;;;;;;8.00;5.83;;;16.00;85.50;;;;;;5021890;28;20386;-68
2023/07/19 01:26:05;;;;;;;7.07;6.20;;;16.00;85.10;;;;;;5049771;28;20570;-68
2023/07/19 01:28:31;;;;;;;7.80;6.87;;;16.00;85.60;;;;;;5033159;28;20303;-68
2023/07/19 01:30:59;;;;;;;7.40;6.70;;;16.00;85.80;;;;;;5049370;28;20381;-68
2023/07/19 01:33:24;;;;;;;8.40;6.60;;;15.90;85.50;;;;;;5041172;28;20042;-68
2023/07/19 01:35:50;;;;;;;11.23;6.77;;;16.00;85.60;;;;;;5029854;28;20298;-68
2023/07/19 01:38:15;;;;;;;10.20;7.03;;;15.90;85.80;;;;;;5038311;28;20048;-68
2023/07/19 01:40:42;;;;;;;7.83;6.50;;;15.90;85.70;;;;;;5040037;28;20357;-68
2023/07/19 01:43:08;;;;;;;10.07;6.87;;;15.90;85.90;;;;;;5040648;28;20053;-68
2023/07/19 01:45:33;;;;;;;10.73;7.40;;;16.00;86.10;;;;;;5030872;28;20307;-68
2023/07/19 01:47:59;;;;;;;9.53;6.97;;;15.90;86.30;;;;;;5048668;28;20643;-68
2023/07/19 01:50:25;;;;;;;10.87;7.97;;;15.90;86.50;;;;;;5049362;28;20033;-68
2023/07/19 01:52:51;;;;;;;9.03;7.20;;;15.90;86.90;;;;;;5025263;28;20041;-68
2023/07/19 01:55:16;;;;;;;10.33;7.57;;;16.00;86.70;;;;;;5027733;28;20136;-68
2023/07/19 01:57:42;;;;;;;10.17;7.37;;;16.00;86.60;;;;;;4990103;28;20874;-68
2023/07/19 02:00:08;;;;;;;8.77;7.60;;;16.00;86.60;;;;;;5004545;28;20045;-68
2023/07/19 02:02:34;;;;;;;9.10;7.37;;;16.00;86.50;;;;;;5006627;28;20083;-68
2023/07/19 02:04:59;;;;;;;9.27;7.53;;;16.00;86.80;;;;;;5012105;28;20839;-69
2023/07/19 02:07:25;;;;;;;11.30;8.13;;;16.00;86.90;;;;;;5012956;28;20041;-68
2023/07/19 02:09:51;;;;;;;12.97;8.03;;;16.00;86.70;;;;;;5004127;28;20041;-68
2023/07/19 02:12:16;;;;;;;10.77;8.07;;;15.90;87.10;;;;;;5004932;28;20124;-68
2023/07/19 02:14:42;;;;;;;13.87;8.20;;;15.90;87.10;;;;;;4999772;28;20037;-68
2023/07/19 02:17:08;;;;;;;9.23;7.37;;;15.80;87.20;;;;;;4993422;28;20041;-68
2023/07/19 02:19:34;;;;;;;8.60;7.60;;;15.80;87.30;;;;;;5011429;28;20034;-68
2023/07/19 02:21:59;;;;;;;9.27;7.80;;;15.70;87.30;;;;;;5012525;28;20030;-68
2023/07/19 02:24:25;;;;;;;9.33;7.73;;;15.70;87.40;;;;;;4999376;28;20041;-68
2023/07/19 02:26:51;;;;;;;11.37;8.53;;;15.60;87.80;;;;;;5005283;28;20419;-68
2023/07/19 02:29:16;;;;;;;13.00;8.47;;;15.60;88.10;;;;;;5007001;28;20110;-68
2023/07/19 02:31:42;;;;;;;8.97;8.03;;;15.50;88.10;;;;;;4988869;28;20065;-68
2023/07/19 02:34:08;;;;;;;9.87;8.13;;;15.50;88.00;;;;;;5008411;28;20211;-68
2023/07/19 02:36:34;;;;;;;9.67;8.53;;;15.40;88.40;;;;;;5012922;28;20049;-68
2023/07/19 02:39:04;;;;;;;12.73;8.70;;;15.40;88.30;;;;;;5012135;28;20295;-68
2023/07/19 02:41:30;;;;;;;10.47;8.63;;;15.40;88.60;;;;;;5012054;28;20329;-68
2023/07/19 02:43:56;;;;;;;9.33;8.33;;;15.50;89.10;;;;;;5012005;28;20647;-68
2023/07/19 02:46:22;;;;;;;9.50;8.20;;;15.50;89.00;;;;;;5007005;28;20300;-68
2023/07/19 02:48:48;;;;;;;10.97;9.17;;;15.50;89.00;;;;;;4997645;28;20280;-68
2023/07/19 02:51:14;;;;;;;11.03;9.43;;;15.60;89.00;;;;;;5011744;28;20044;-68
2023/07/19 02:53:39;;;;;;;11.70;9.03;;;15.60;88.90;;;;;;5011114;28;20029;-68
2023/07/19 02:56:05;;;;;;;10.40;8.40;;;15.60;88.90;;;;;;5017107;28;20476;-68
2023/07/19 02:58:31;;;;;;;11.40;8.93;;;15.60;89.00;;;;;;5040736;28;20513;-68
2023/07/19 03:00:57;;;;;;;9.60;7.97;;;15.70;89.30;;;;;;5043815;28;20064;-68
2023/07/19 03:03:22;;;;;;;10.93;9.10;;;15.70;89.50;;;;;;5030217;28;20037;-68
2023/07/19 03:05:48;;;;;;;13.33;10.07;;;15.70;89.50;;;;;;5044962;28;20041;-68
2023/07/19 03:08:14;;;;;;;13.60;9.97;;;15.70;89.40;;;;;;5048123;28;20040;-68
2023/07/19 03:10:40;;;;;;;11.23;9.40;;;15.70;89.30;;;;;;5044003;28;20940;-68
2023/07/19 03:13:06;;;;;;;11.30;9.63;;;15.70;89.30;;;;;;5048520;28;20380;-68
2023/07/19 03:15:33;;;;;;;10.77;8.50;;;15.70;89.50;;;;;;5048070;28;20052;-68
2023/07/19 03:18:03;;;;;;;13.53;9.90;;;15.60;89.40;;;;;;5046539;28;20048;-69
2023/07/19 03:20:29;;;;;;;12.00;9.50;;;15.70;89.40;;;;;;5042021;28;20282;-68
2023/07/19 03:22:56;;;;;;;14.53;10.50;;;15.70;89.40;;;;;;5045497;28;20843;-68
2023/07/19 03:25:25;;;;;;;15.43;9.80;;;15.70;89.50;;;;;;5045935;28;20307;-68
2023/07/19 03:27:51;;;;;;;13.87;10.37;;;15.70;89.70;;;;;;5047082;28;20331;-68
2023/07/19 03:30:17;;;;;;;12.43;9.87;;;15.70;90.10;;;;;;5048281;28;20283;-69
2023/07/19 03:32:43;;;;;;;12.27;9.43;;;15.70;90.10;;;;;;5032029;28;20487;-68
2023/07/19 03:35:09;;;;;;;12.87;9.63;;;15.70;89.90;;;;;;5033321;28;20291;-68
2023/07/19 03:37:36;;;;;;;12.47;9.30;;;15.70;90.00;;;;;;5034705;28;20102;-68
2023/07/19 03:40:02;;;;;;;15.83;10.10;;;15.70;90.20;;;;;;5039730;28;20049;-68
2023/07/19 03:42:28;;;;;;;10.90;9.13;;;15.70;90.00;;;;;;5038775;28;20283;-68
2023/07/19 03:44:54;;;;;;;10.90;9.80;;;15.80;90.10;;;;;;5047298;28;20370;-68
2023/07/19 03:47:19;;;;;;;12.73;9.10;;;15.80;90.10;;;;;;5039889;28;20041;-68
2023/07/19 03:49:45;;;;;;;12.73;9.20;;;15.80;90.10;;;;;;5029422;28;20104;-69
2023/07/19 03:52:11;;;;;;;11.80;9.57;;;15.90;89.80;;;;;;5045320;28;20041;-68
2023/07/19 03:54:36;;;;;;;13.00;10.43;;;15.90;89.80;;;;;;5034323;28;20489;-68
2023/07/19 03:57:02;;;;;;;12.53;9.37;;;15.90;89.80;;;;;;5044287;28;20059;-68
2023/07/19 03:59:29;;;;;;;15.63;10.03;;;15.90;89.70;;;;;;5049740;28;20076;-68
2023/07/19 04:01:55;;;;;;;12.67;10.00;;;15.90;89.80;;;;;;5032278;28;20564;-68
2023/07/19 04:04:21;;;;;;;17.03;10.90;;;15.90;89.70;;;;;;5041119;28;20288;-68
2023/07/19 04:06:46;;;;;;;11.47;9.60;;;15.90;89.80;;;;;;5051349;28;20080;-68
2023/07/19 04:09:12;;;;;;;13.77;10.23;;;15.90;89.90;;;;;;5044971;28;20041;-68
2023/07/19 04:11:38;;;;;;;13.53;10.23;;;15.90;90.10;;;;;;5064612;28;20045;-68
2023/07/19 04:14:04;;;;;;;12.73;9.83;;;15.90;89.80;;;;;;5034989;28;20041;-68
2023/07/19 04:16:29;;;;;;;12.63;9.47;;;16.00;90.20;;;;;;5048095;28;20527;-68
2023/07/19 04:18:55;;;;;;;12.60;9.50;;;15.90;90.30;;;;;;5026979;28;20045;-68
2023/07/19 04:21:21;;;;;;;10.90;8.67;;;15.90;90.50;;;;;;5051232;28;20059;-68
2023/07/19 04:23:46;;;;;;;9.87;7.97;;;15.90;90.50;;;;;;5051306;28;20033;-69
2023/07/19 04:26:12;;;;;;;10.47;7.90;;;15.90;90.40;;;;;;5020018;28;20037;-68
2023/07/19 04:28:38;;;;;;;11.30;7.60;;;15.90;90.30;;;;;;5050644;28;20408;-68
2023/07/19 04:31:03;;;;;;;9.53;7.00;;;15.90;89.90;;;;;;5050702;28;20048;-68
2023/07/19 04:33:30;;;;;;;7.90;6.60;;;16.00;89.50;;;;;;5044165;28;20040;-68
2023/07/19 04:35:56;;;;;;;9.40;5.97;;;16.00;89.20;;;;;;5050751;28;20452;-68
2023/07/19 04:38:22;;;;;;;9.10;5.77;;;16.00;88.80;;;;;;5043749;28;20299;-68
2023/07/19 04:40:47;;;;;;;8.67;5.60;;;16.00;88.50;;;;;;5042728;28;20124;-68
2023/07/19 04:43:13;;;;;;;5.73;4.70;;;16.10;88.30;;;;;;5038698;28;20128;-68
2023/07/19 04:45:43;;;;;;;8.17;4.60;;;16.10;88.00;;;;;;5039987;28;20163;-68
2023/07/19 04:48:09;;;;;;;8.80;5.47;;;16.10;87.60;;;;;;5037237;28;20052;-68
2023/07/19 04:50:34;;;;;;;8.33;5.50;;;16.10;87.60;;;;;;5039079;28;20291;-68
2023/07/19 04:53:00;;;;;;;10.87;5.10;;;16.10;87.30;;;;;;5026255;28;20094;-68
2023/07/19 04:55:26;;;;;;;7.37;5.27;;;16.20;87.30;;;;;;5037868;28;20520;-68
2023/07/19 04:57:52;;;;;;;7.77;5.63;;;16.20;87.20;;;;;;5001848;28;20375;-68
2023/07/19 05:00:17;;;;;;;6.07;4.47;;;16.20;87.10;;;;;;4990768;28;20041;-68
2023/07/19 05:02:43;;;;;;;7.63;4.63;;;16.20;86.90;;;;;;4992687;28;20041;-68
2023/07/19 05:05:09;;;;;;;6.33;3.67;;;16.20;86.40;;;;;;5009259;28;20052;-68
2023/07/19 05:07:37;;;;;;;8.40;3.90;;;16.20;86.20;;;;;;4990451;28;20569;-68
2023/07/19 05:10:04;;;;;;;5.80;3.20;;;16.20;86.00;;;;;;5003646;28;20280;-68
2023/07/19 05:12:31;;;;;;;7.00;2.93;;;16.20;85.60;;;;;;5006724;28;20304;-68
2023/07/19 05:14:57;;;;;;;7.20;3.60;;;16.20;83.90;;;;;;5011147;28;20311;-68
2023/07/19 05:17:23;;;;;;;9.03;4.53;;;16.10;83.90;;;;;;4983944;28;20295;-68
2023/07/19 05:19:49;;;;;;;5.73;4.10;;;16.10;84.40;;;;;;5010319;28;20280;-68
2023/07/19 05:22:14;;;;;;;6.33;4.33;;;16.10;85.30;;;;;;5013999;28;20033;-68
2023/07/19 05:24:40;;;;;;;8.07;4.70;;;16.10;85.70;;;;;;5003737;28;20091;-69
2023/07/19 05:27:06;;;;;;;7.70;4.57;;;16.10;85.90;;;;;;5001426;28;20048;-68
2023/07/19 05:29:33;;;;;;;6.90;4.63;;;16.10;86.20;;;;;;5012333;28;20033;-68
2023/07/19 05:31:59;;;;;;;7.40;5.00;;;16.00;86.20;;;;;;5003817;28;20484;-69
2023/07/19 05:34:25;;;;;;;6.97;4.10;;;16.10;86.50;;;;;;4989609;28;20396;-69
2023/07/19 05:36:50;;;;;;;8.13;4.37;;;16.10;86.40;;;;;;5010940;28;20317;-69
2023/07/19 05:39:16;;;;;;;6.30;3.83;;;16.10;86.60;;;;;;5011557;28;20678;-68
2023/07/19 05:41:42;;;;;;;8.57;3.77;;;16.00;86.50;;;;;;5002402;28;20029;-68
2023/07/19 05:44:08;;;;;;;6.77;3.10;;;16.10;86.50;;;;;;5013132;28;20045;-68
2023/07/19 05:46:36;;;;;;;5.77;3.37;;;16.00;86.40;;;;;;5008154;28;20113;-68
2023/07/19 05:49:02;;;;;;;11.33;3.70;;;16.00;86.30;;;;;;5012104;28;20284;-68
2023/07/19 05:51:28;;;;;;;5.80;3.00;;;16.10;86.60;;;;;;5012546;28;20298;-68
2023/07/19 05:53:54;;;;;;;7.47;3.90;;;16.10;86.40;;;;;;5012095;28;20280;-68
2023/07/19 05:56:21;;;;;;;4.63;3.20;;;16.10;86.60;;;;;;5020402;28;20413;-68
2023/07/19 05:58:47;;;;;;;5.07;3.03;;;16.10;86.50;;;;;;5028726;28;20284;-68
2023/07/19 06:01:17;;;;;;;6.70;4.00;;;16.20;86.50;;;;;;5043974;28;20328;-68
2023/07/19 06:03:43;;;;;;;6.07;3.17;;;16.20;86.30;;;;;;5038341;28;20063;-68
2023/07/19 06:06:09;;;;;;;5.70;2.83;;;16.20;86.20;;;;;;5048310;28;20339;-68
2023/07/19 06:08:34;;;;;;;6.17;2.77;;;16.30;86.40;;;;;;5034845;28;20720;-68
2023/07/19 06:11:00;;;;;;;4.80;2.60;;;16.30;86.20;;;;;;5038116;28;20041;-68
2023/07/19 06:13:26;;;;;;;5.97;2.97;;;16.40;86.10;;;;;;5038111;28;20104;-68
2023/07/19 06:15:52;;;;;;;7.90;3.13;;;16.50;86.00;;;;;;5040044;28;20615;-68
2023/07/19 06:18:18;;;;;;;7.30;2.43;;;16.60;86.00;;;;;;5024274;28;20295;-68
2023/07/19 06:20:43;;;;;;;8.00;2.30;;;16.70;85.90;;;;;;5043033;28;20040;-68
2023/07/19 06:23:09;;;;;;;3.17;2.07;;;16.70;85.60;;;;;;5046005;28;20048;-68
2023/07/19 06:25:35;;;;;;;4.70;1.70;;;16.80;85.30;;;;;;5047539;28;20048;-68
2023/07/19 06:28:00;;;;;;;4.10;1.90;;;16.80;85.30;;;;;;5034121;28;20041;-68
2023/07/19 06:30:26;;;;;;;3.50;1.50;;;16.90;84.90;;;;;;5047819;28;20044;-68
2023/07/19 06:32:52;;;;;;;2.77;1.50;;;16.90;84.60;;;;;;5049076;28;20033;-68
2023/07/19 06:35:17;;;;;;;5.87;1.60;;;17.00;84.40;;;;;;5048481;28;20044;-68
2023/07/19 06:37:43;;;;;;;2.53;1.17;;;17.00;84.40;;;;;;5034097;28;20063;-68
2023/07/19 06:40:09;;;;;;;5.27;1.40;;;17.10;84.00;;;;;;5046432;28;20291;-68
2023/07/19 06:42:36;;;;;;;3.73;0.97;;;17.10;83.90;;;;;;5044819;28;20620;-68
2023/07/19 06:45:01;;;;;;;3.33;1.10;;;17.20;83.70;;;;;;5039726;28;20296;-68
2023/07/19 06:47:28;;;;;;;5.27;1.50;;;17.30;83.40;;;;;;5030908;28;20845;-68
2023/07/19 06:49:55;;;;;;;2.63;1.07;;;17.30;83.30;;;;;;5047589;28;20039;-68
2023/07/19 06:52:21;;;;;;;2.80;0.70;;;17.40;83.20;;;;;;5046704;28;20382;-68
2023/07/19 06:54:46;;;;;;;2.20;1.00;;;17.40;83.00;;;;;;5037987;28;20363;-68
2023/07/19 06:57:12;;;;;;;1.43;0.83;;;17.50;83.20;;;;;;5043953;28;20092;-68
2023/07/19 06:59:38;;;;;;;2.93;1.10;;;17.60;83.10;;;;;;5030704;28;20048;-68
2023/07/19 07:02:03;;;;;;;2.07;0.90;;;17.80;83.00;;;;;;5047156;28;20080;-68
2023/07/19 07:04:29;;;;;;;2.97;0.80;;;17.80;82.70;;;;;;5055230;28;20098;-68
2023/07/19 07:06:55;;;;;;;3.33;0.87;;;17.90;82.40;;;;;;5042301;28;20041;-68
2023/07/19 07:09:20;;;;;;;2.23;0.60;;;17.90;82.20;;;;;;5040311;28;20049;-68
2023/07/19 07:11:46;;;;;;;3.23;0.77;;;17.90;82.10;;;;;;5037311;28;20112;-68
2023/07/19 07:14:12;;;;;;;1.60;0.60;;;17.90;82.10;;;;;;5049953;28;20028;-68
2023/07/19 07:16:37;;;;;;;1.87;0.70;;;17.90;82.60;;;;;;5037625;28;20037;-68
2023/07/19 07:19:04;;;;;;;2.03;0.73;;;17.90;83.50;;;;;;5021646;28;20541;-68
2023/07/19 07:21:30;;;;;;;2.00;0.80;;;18.00;84.30;;;;;;5042641;28;20045;-68
2023/07/19 07:23:56;;;;;;;2.30;0.80;;;17.90;83.40;;;;;;5044531;28;20309;-69
2023/07/19 07:26:25;;;;;;;1.43;0.60;;;18.00;83.70;;;;;;5055963;28;20068;-70
2023/07/19 07:28:51;;;;;;;2.40;0.80;;;18.00;83.40;;;;;;5048050;28;20283;-69
2023/07/19 07:31:21;;;;;;;2.23;0.77;;;18.00;82.80;;;;;;5041309;28;20318;-68
2023/07/19 07:33:48;;;;;;;3.07;1.30;;;18.10;82.40;;;;;;5040293;28;20290;-69
2023/07/19 07:36:17;;;;;;;2.40;1.10;;;18.20;82.40;;;;;;5046842;28;20283;-69
2023/07/19 07:38:43;;;;;;;3.77;1.00;;;18.30;81.60;;;;;;5043119;28;20299;-69
2023/07/19 07:41:11;;;;;;;4.13;0.77;;;18.50;80.60;;;;;;5015144;28;20053;-69
2023/07/19 07:43:38;;;;;;;4.83;1.23;;;18.60;80.70;;;;;;5042719;28;20120;-69
2023/07/19 07:46:03;;;;;;;2.97;0.90;;;18.80;79.60;;;;;;5040551;28;20394;-68
2023/07/19 07:48:30;;;;;;;4.73;1.03;;;18.90;79.70;;;;;;5049122;28;20378;-69
2023/07/19 07:51:02;;;;;;;7.33;1.40;;;19.00;78.90;;;;;;5041001;28;20048;-68
2023/07/19 07:53:29;;;;;;;1.93;1.20;;;19.10;78.60;;;;;;5043031;28;20670;-69
2023/07/19 07:55:55;;;;;;;3.33;1.10;;;19.30;78.40;;;;;;5040862;28;20292;-69
2023/07/19 07:58:21;;;;;;;4.10;1.00;;;19.50;76.70;;;;;;5053489;28;20044;-70
2023/07/19 08:00:49;;;;;;;3.23;1.20;;;19.70;75.30;;;;;;5028487;28;20349;-69
2023/07/19 08:03:15;;;;;;;2.73;0.60;;;19.90;74.80;;;;;;5041068;28;20068;-69
2023/07/19 08:05:41;;;;;;;2.63;0.80;;;19.90;74.20;;;;;;5050716;28;20484;-70
2023/07/19 08:08:11;;;;;;;2.93;1.03;;;20.10;74.00;;;;;;5042401;28;20033;-69
2023/07/19 08:10:41;;;;;;;3.37;0.80;;;20.30;72.40;;;;;;5041089;28;20556;-69
2023/07/19 08:13:08;;;;;;;4.50;0.93;;;20.60;71.20;;;;;;5034690;28;20413;-69
2023/07/19 08:15:34;;;;;;;5.20;0.97;;;20.80;70.00;;;;;;5044477;28;20359;-69
2023/07/19 08:18:00;;;;;;;2.40;1.10;;;20.80;68.50;;;;;;5046894;28;20393;-69
2023/07/19 08:20:30;;;;;;;3.50;1.50;;;20.70;68.50;;;;;;5045493;28;20111;-69
2023/07/19 08:22:56;;;;;;;3.80;1.53;;;20.30;69.20;;;;;;5048012;28;20045;-69
2023/07/19 08:25:22;;;;;;;4.87;1.90;;;20.00;70.20;;;;;;5028115;28;20062;-70
2023/07/19 08:27:48;;;;;;;6.50;2.00;;;19.70;71.20;;;;;;5037219;28;20041;-70
2023/07/19 08:30:17;;;;;;;4.67;1.97;;;19.50;72.20;;;;;;5051695;28;20049;-70
2023/07/19 08:32:47;;;;;;;6.43;2.40;;;19.40;73.00;;;;;;5031786;28;20579;-68
2023/07/19 08:35:14;;;;;;;4.27;1.50;;;19.50;73.30;;;;;;5002492;28;20041;-69
2023/07/19 08:37:45;;;;;;;4.00;1.57;;;19.60;72.80;;;;;;5031249;28;20037;-69
2023/07/19 08:40:12;;;;;;;3.47;1.60;;;19.50;71.90;;;;;;5054808;28;20025;-69
2023/07/19 08:42:40;;;;;;;3.50;1.53;;;19.40;72.70;;;;;;5044234;28;20036;-70
2023/07/19 08:45:07;;;;;;;4.97;1.90;;;19.50;72.50;;;;;;5046031;28;20489;-69
2023/07/19 08:47:34;;;;;;;5.83;1.83;;;19.80;72.20;;;;;;5040750;28;20041;-68
2023/07/19 08:50:07;;;;;;;6.67;1.90;;;20.20;70.00;;;;;;5033353;28;20047;-69
2023/07/19 08:52:33;;;;;;;4.83;1.47;;;20.40;68.80;;;;;;5048478;28;20083;-69
2023/07/19 08:55:00;;;;;;;3.23;1.40;;;20.60;68.00;;;;;;5040536;28;20138;-68
2023/07/19 08:57:27;;;;;;;3.97;1.23;;;20.50;68.10;;;;;;5048562;28;20088;-67
2023/07/19 08:59:52;;;;;;;3.03;1.47;;;20.70;68.70;;;;;;5048351;28;20050;-68
2023/07/19 09:02:18;;;;;;;5.50;1.83;;;20.90;67.10;;;;;;5037682;28;20051;-67
2023/07/19 09:05:13;;;;;;;6.17;1.50;;;20.90;65.90;;;;;;5047535;28;20492;-67
2023/07/19 09:07:40;;;;;;;3.90;1.90;;;20.60;65.50;;;;;;5047503;28;20186;-67
2023/07/19 09:10:07;;;;;;;6.53;1.50;;;20.40;66.10;;;;;;5047496;28;20057;-67
2023/07/19 09:12:38;;;;;;;5.70;2.10;;;20.40;67.10;;;;;;5043634;28;20036;-67
2023/07/19 09:15:13;;;;;;;5.17;1.27;;;20.60;66.90;;;;;;5046449;28;20182;-67
2023/07/19 09:17:44;;;;;;;3.70;1.23;;;20.90;65.20;;;;;;5032341;28;20074;-67
2023/07/19 09:20:11;;;;;;;4.27;1.10;;;21.10;64.40;;;;;;5043347;28;20045;-67
2023/07/19 09:22:38;;;;;;;4.00;1.30;;;21.50;65.40;;;;;;5041840;28;20408;-67
2023/07/19 09:25:05;;;;;;;5.13;1.40;;;21.90;63.30;;;;;;5047597;28;20042;-67
2023/07/19 09:27:32;;;;;;;4.63;1.80;;;21.80;62.90;;;;;;5048159;28;20052;-67
2023/07/19 09:29:59;;;;;;;5.30;1.30;;;21.60;63.00;;;;;;5053787;28;20052;-68
2023/07/19 09:32:25;;;;;;;4.77;1.60;;;21.60;63.20;;;;;;5028630;28;20044;-68
2023/07/19 09:34:55;;;;;;;8.73;1.80;;;21.60;63.80;;;;;;5017881;28;20500;-68
2023/07/19 09:37:24;;;;;;;6.80;2.00;;;21.80;63.80;;;;;;5039260;28;20044;-68
2023/07/19 09:39:52;;;;;;;5.00;1.60;;;22.00;62.60;;;;;;5043815;28;20032;-68
2023/07/19 09:42:19;;;;;;;4.63;1.37;;;22.10;62.70;;;;;;5047809;28;20037;-68
2023/07/19 09:44:48;;;;;;;3.77;1.17;;;22.10;62.50;;;;;;5039673;28;20549;-68
2023/07/19 09:47:15;;;;;;;5.40;1.33;;;22.20;61.70;;;;;;5029595;28;20051;-68
2023/07/19 09:49:42;;;;;;;4.67;1.30;;;22.30;62.00;;;;;;5026141;28;20571;-68
2023/07/19 09:52:12;;;;;;;4.83;1.60;;;22.40;61.30;;;;;;5021224;28;20083;-68
2023/07/19 09:54:38;;;;;;;4.60;1.40;;;22.50;60.80;;;;;;5047615;28;20099;-68
2023/07/19 09:57:04;;;;;;;3.07;1.00;;;22.50;60.90;;;;;;5046468;28;20792;-68
2023/07/19 09:59:49;;;;;;;3.03;1.43;;;22.50;60.70;;;;;;5045480;28;20386;-68
2023/07/19 10:02:15;;;;;;;;;;;22.60;59.60;;;;;;5045821;28;20083;-68
2023/07/19 10:04:44;;;;;;;4.23;1.30;;;22.70;59.40;;;;;;5048365;28;20323;-68
2023/07/19 10:07:25;;;;;;;3.40;1.47;;;22.80;59.40;;;;;;5042318;28;20084;-68
2023/07/19 10:10:04;;;;;;;3.33;1.30;;;22.60;58.50;;;;;;5042055;28;20136;-68
2023/07/19 10:12:31;;;;;;;3.83;1.60;;;22.10;60.00;;;;;;5048201;28;20041;-68
2023/07/19 10:15:02;;;;;;;4.13;1.60;;;21.90;60.90;;;;;;5040875;28;20424;-67
2023/07/19 10:17:37;;;;;;;4.07;1.60;;;21.80;61.30;;;;;;5042004;28;20041;-67
2023/07/19 10:20:09;;;;;;;2.60;1.57;;;21.80;62.40;;;;;;5047556;28;20079;-67
2023/07/19 10:22:57;;;;;;;6.20;1.33;;;21.90;61.50;;;;;;5054314;28;20055;-67
2023/07/19 10:25:34;;;;;;;3.90;1.23;;;22.10;61.10;;;;;;5028954;28;20047;-67
2023/07/19 10:28:12;;;;;;;1.77;1.00;;;22.20;60.40;;;;;;5039748;28;20033;-67
2023/07/19 10:30:46;;;;;;;5.13;1.50;;;22.30;59.00;;;;;;5017661;28;20048;-68
2023/07/19 10:33:13;;;;;;;4.00;1.20;;;22.10;59.60;;;;;;5035303;28;20037;-68
2023/07/19 10:35:40;;;;;;;4.00;1.23;;;22.10;61.10;;;;;;5044710;28;20138;-67
2023/07/19 10:38:16;;;;;;;4.83;1.40;;;22.10;60.80;;;;;;5045017;28;20032;-67
2023/07/19 10:41:09;;;;;;;5.93;1.13;;;22.20;60.40;;;;;;5047743;28;20071;-69
2023/07/19 10:43:37;;;;;;;2.83;1.33;;;22.50;60.00;;;;;;5029861;28;20101;-69
2023/07/19 10:46:06;;;;;;;4.03;1.20;;;22.70;59.40;;;;;;5035704;28;20408;-71
2023/07/19 10:48:34;;;;;;;4.20;1.37;;;22.70;58.70;;;;;;5037125;28;20049;-70
2023/07/19 10:51:05;;;;;;;3.13;1.30;;;22.60;59.50;;;;;;5017543;28;20049;-69
2023/07/19 10:53:56;;;;;;;4.67;1.20;;;22.50;59.70;;;;;;5051008;28;20084;-70
2023/07/19 10:56:37;;;;;;;4.40;1.50;;;22.60;59.50;;;;;;4998255;28;20120;-69
2023/07/19 10:59:04;;;;;;;4.30;1.30;;;22.60;59.30;;;;;;5006743;28;20049;-70
2023/07/19 11:01:32;;;;;;;3.40;1.03;;;22.80;59.80;;;;;;4966759;28;20534;-69
2023/07/19 11:04:04;;;;;;;3.47;1.20;;;23.10;60.30;;;;;;4989562;28;20042;-70
2023/07/19 11:06:31;;;;;;;3.20;1.00;;;23.50;58.00;;;;;;4988887;28;20050;-71
2023/07/19 11:09:09;;;;;;;2.87;1.27;;;23.50;56.90;;;;;;4975300;28;20046;-69
2023/07/19 11:11:37;;;;;;;4.03;1.20;;;23.40;56.70;;;;;;4988584;28;20081;-69
2023/07/19 11:14:04;;;;;;;4.43;1.50;;;23.60;57.70;;;;;;4994087;28;20049;-70
2023/07/19 11:16:31;;;;;;;2.50;1.00;;;23.50;56.50;;;;;;4975457;28;20066;-70
2023/07/19 11:18:58;;;;;;;3.73;0.93;;;23.30;56.60;;;;;;4975785;28;20050;-69
2023/07/19 11:21:25;;;;;;;4.00;1.10;;;23.10;57.70;;;;;;4990157;28;20056;-69
2023/07/19 11:23:51;;;;;;;3.70;1.10;;;23.00;57.90;;;;;;5000454;28;20048;-69
2023/07/19 11:26:18;;;;;;;4.43;1.50;;;23.10;57.50;;;;;;4997432;28;20406;-70
2023/07/19 11:28:47;;;;;;;4.87;1.77;;;23.10;57.70;;;;;;5041916;28;20671;-70
2023/07/19 11:31:32;;;;;;;3.57;1.30;;;22.90;58.30;;;;;;5053518;28;20037;-69
2023/07/19 11:34:09;;;;;;;3.30;1.30;;;22.80;57.20;;;;;;5058625;28;20052;-69
2023/07/19 11:36:41;;;;;;;2.95;1.30;;;22.70;58.10;;;;;;5052261;28;20133;-68
2023/07/19 11:39:18;;;;;;;3.80;1.17;;;22.70;57.60;;;;;;5051597;28;20083;-69
2023/07/19 11:41:47;;;;;;;2.60;1.03;;;22.60;57.30;;;;;;5052124;28;20044;-69
2023/07/19 11:44:21;;;;;;;3.47;1.17;;;22.50;57.50;;;;;;5039766;28;20053;-70
2023/07/19 11:46:51;;;;;;;4.13;1.43;;;22.50;58.00;;;;;;5051372;28;20040;-69
2023/07/19 11:49:18;;;;;;;4.53;1.17;;;22.40;57.00;;;;;;5047072;28;20042;-68
2023/07/19 11:51:47;;;;;;;1.67;1.00;;;22.20;57.70;;;;;;5031627;28;20045;-70
2023/07/19 11:54:16;;;;;;;4.00;1.30;;;22.00;58.40;;;;;;5042630;28;20481;-69
2023/07/19 11:56:41;;;;;;;2.87;1.03;;;22.00;59.40;;;;;;5057611;28;20115;-69
2023/07/19 11:59:07;;;;;;;3.00;0.90;;;22.20;58.00;;;;;;5032988;28;20041;-69
2023/07/19 12:01:34;;;;;;;3.27;1.00;;;22.10;56.70;;;;;;5030983;28;20248;-69
2023/07/19 12:04:01;;;;;;;3.87;1.03;;;22.00;56.70;;;;;;5045987;28;20052;-70
2023/07/19 12:06:29;;;;;;;4.83;1.30;;;22.10;58.10;;;;;;5058545;28;20072;-69
2023/07/19 12:08:58;;;;;;;3.33;1.20;;;22.40;57.10;;;;;;5039588;28;20045;-69
2023/07/19 12:11:24;;;;;;;3.70;1.43;;;22.50;56.50;;;;;;5050893;28;20079;-71
2023/07/19 12:13:58;;;;;;;3.00;0.83;;;22.60;56.70;;;;;;5050856;28;20067;-69
2023/07/19 12:16:26;;;;;;;3.37;0.83;;;22.70;57.00;;;;;;5049023;28;20047;-70
2023/07/19 12:18:52;;;;;;;2.43;1.20;;;22.70;54.80;;;;;;5042448;28;20038;-70
2023/07/19 12:21:18;;;;;;;2.83;1.40;;;22.40;55.90;;;;;;5031057;28;20041;-69
2023/07/19 12:23:43;;;;;;;2.00;1.10;;;22.30;56.20;;;;;;5031512;28;20080;-69
2023/07/19 12:26:10;;;;;;;2.60;0.80;;;22.30;56.80;;;;;;5053192;28;20075;-70
2023/07/19 12:28:37;;;;;;;3.40;1.10;;;22.20;56.50;;;;;;5050440;28;20062;-69
2023/07/19 12:31:02;;;;;;;3.73;0.97;;;22.30;56.90;;;;;;5050654;28;20120;-70
2023/07/19 12:33:28;;;;;;;2.97;1.10;;;22.40;56.50;;;;;;5034077;28;20461;-69
2023/07/19 12:35:54;;;;;;;2.43;0.60;;;22.50;56.10;;;;;;5036782;28;20116;-69
2023/07/19 12:38:20;;;;;;;2.10;0.73;;;22.50;56.10;;;;;;5030042;28;20132;-71
2023/07/19 12:40:47;;;;;;;2.10;0.83;;;22.40;55.40;;;;;;5044260;28;20048;-69
2023/07/19 12:43:14;;;;;;;2.33;0.60;;;22.30;55.70;;;;;;5038456;28;20082;-69
2023/07/19 12:45:40;;;;;;;3.97;0.60;;;22.40;55.90;;;;;;5035618;28;20045;-69